sensor_id;sensor_type;location;lat;lon;timestamp;P1;durP1;ratioP1;P2;durP2;ratioP2
37955;SDS011;23776;51.592;7.180;2023-06-10T00:00:47;11.82;;;7.93;;
37955;SDS011;23776;51.592;7.180;2023-06-10T00:03:13;13.85;;;8.18;;
37955;SDS011;23776;51.592;7.180;2023-06-10T00:05:39;16.58;;;8.00;;
37955;SDS011;23776;51.592;7.180;2023-06-10T00:08:06;15.23;;;8.13;;
37955;SDS011;23776;51.592;7.180;2023-06-10T00:10:33;10.77;;;7.60;;
37955;SDS011;23776;51.592;7.180;2023-06-10T00:13:00;12.68;;;8.07;;
37955;SDS011;23776;51.592;7.180;2023-06-10T00:15:27;11.85;;;8.07;;
37955;SDS011;23776;51.592;7.180;2023-06-10T00:17:53;16.02;;;8.57;;
37955;SDS011;23776;51.592;7.180;2023-06-10T00:20:20;12.50;;;8.00;;
37955;SDS011;23776;51.592;7.180;2023-06-10T00:22:48;13.95;;;9.23;;
37955;SDS011;23776;51.592;7.180;2023-06-10T00:25:14;15.77;;;8.88;;
37955;SDS011;23776;51.592;7.180;2023-06-10T00:27:40;11.27;;;8.57;;
37955;SDS011;23776;51.592;7.180;2023-06-10T00:30:06;12.07;;;7.88;;
37955;SDS011;23776;51.592;7.180;2023-06-10T00:32:33;13.90;;;8.63;;
37955;SDS011;23776;51.592;7.180;2023-06-10T00:34:59;14.80;;;8.77;;
37955;SDS011;23776;51.592;7.180;2023-06-10T00:37:25;13.10;;;9.30;;
37955;SDS011;23776;51.592;7.180;2023-06-10T00:39:51;11.60;;;8.43;;
37955;SDS011;23776;51.592;7.180;2023-06-10T00:42:17;12.45;;;8.95;;
37955;SDS011;23776;51.592;7.180;2023-06-10T00:44:44;14.85;;;9.50;;
37955;SDS011;23776;51.592;7.180;2023-06-10T00:47:10;15.18;;;8.77;;
37955;SDS011;23776;51.592;7.180;2023-06-10T00:49:36;16.38;;;9.48;;
37955;SDS011;23776;51.592;7.180;2023-06-10T00:52:02;14.73;;;8.88;;
37955;SDS011;23776;51.592;7.180;2023-06-10T00:54:29;11.98;;;8.48;;
37955;SDS011;23776;51.592;7.180;2023-06-10T00:56:55;12.90;;;9.02;;
37955;SDS011;23776;51.592;7.180;2023-06-10T00:59:22;13.82;;;9.20;;
37955;SDS011;23776;51.592;7.180;2023-06-10T01:01:50;16.88;;;9.68;;
37955;SDS011;23776;51.592;7.180;2023-06-10T01:04:17;13.32;;;8.68;;
37955;SDS011;23776;51.592;7.180;2023-06-10T01:09:57;12.63;;;8.15;;
37955;SDS011;23776;51.592;7.180;2023-06-10T01:14:49;19.95;;;10.13;;
37955;SDS011;23776;51.592;7.180;2023-06-10T01:17:16;13.20;;;9.43;;
37955;SDS011;23776;51.592;7.180;2023-06-10T01:19:43;14.75;;;8.93;;
37955;SDS011;23776;51.592;7.180;2023-06-10T01:22:09;13.40;;;9.55;;
37955;SDS011;23776;51.592;7.180;2023-06-10T01:24:35;19.23;;;9.52;;
37955;SDS011;23776;51.592;7.180;2023-06-10T01:27:03;12.30;;;8.95;;
37955;SDS011;23776;51.592;7.180;2023-06-10T01:29:40;15.02;;;9.13;;
37955;SDS011;23776;51.592;7.180;2023-06-10T01:34:44;13.45;;;9.57;;
37955;SDS011;23776;51.592;7.180;2023-06-10T01:37:11;16.55;;;9.45;;
37955;SDS011;23776;51.592;7.180;2023-06-10T01:39:38;14.35;;;9.35;;
37955;SDS011;23776;51.592;7.180;2023-06-10T01:42:05;13.10;;;9.38;;
37955;SDS011;23776;51.592;7.180;2023-06-10T01:44:31;15.00;;;10.77;;
37955;SDS011;23776;51.592;7.180;2023-06-10T01:46:57;12.25;;;9.63;;
37955;SDS011;23776;51.592;7.180;2023-06-10T01:49:23;15.68;;;9.88;;
37955;SDS011;23776;51.592;7.180;2023-06-10T01:51:51;19.48;;;9.57;;
37955;SDS011;23776;51.592;7.180;2023-06-10T01:54:17;14.90;;;9.45;;
37955;SDS011;23776;51.592;7.180;2023-06-10T01:56:43;14.70;;;10.20;;
37955;SDS011;23776;51.592;7.180;2023-06-10T01:59:08;16.70;;;9.38;;
37955;SDS011;23776;51.592;7.180;2023-06-10T02:01:34;15.55;;;9.60;;
37955;SDS011;23776;51.592;7.180;2023-06-10T02:04:00;18.35;;;9.35;;
37955;SDS011;23776;51.592;7.180;2023-06-10T02:06:26;13.63;;;8.60;;
37955;SDS011;23776;51.592;7.180;2023-06-10T02:08:51;15.70;;;9.75;;
37955;SDS011;23776;51.592;7.180;2023-06-10T02:11:17;14.57;;;9.70;;
37955;SDS011;23776;51.592;7.180;2023-06-10T02:13:43;15.25;;;9.23;;
37955;SDS011;23776;51.592;7.180;2023-06-10T02:16:09;13.45;;;9.13;;
37955;SDS011;23776;51.592;7.180;2023-06-10T02:18:38;17.60;;;9.85;;
37955;SDS011;23776;51.592;7.180;2023-06-10T02:21:05;18.13;;;9.52;;
37955;SDS011;23776;51.592;7.180;2023-06-10T02:23:31;14.98;;;8.82;;
37955;SDS011;23776;51.592;7.180;2023-06-10T02:25:57;15.07;;;9.68;;
37955;SDS011;23776;51.592;7.180;2023-06-10T02:28:23;16.80;;;10.35;;
37955;SDS011;23776;51.592;7.180;2023-06-10T02:30:49;14.85;;;10.13;;
37955;SDS011;23776;51.592;7.180;2023-06-10T02:33:15;17.60;;;10.35;;
37955;SDS011;23776;51.592;7.180;2023-06-10T02:35:42;17.08;;;9.88;;
37955;SDS011;23776;51.592;7.180;2023-06-10T02:38:08;17.27;;;10.13;;
37955;SDS011;23776;51.592;7.180;2023-06-10T02:40:34;17.13;;;10.52;;
37955;SDS011;23776;51.592;7.180;2023-06-10T02:43:00;16.77;;;10.05;;
37955;SDS011;23776;51.592;7.180;2023-06-10T02:45:26;16.92;;;10.23;;
37955;SDS011;23776;51.592;7.180;2023-06-10T02:47:52;17.73;;;11.00;;
37955;SDS011;23776;51.592;7.180;2023-06-10T02:50:18;21.30;;;10.50;;
37955;SDS011;23776;51.592;7.180;2023-06-10T02:52:44;14.77;;;9.35;;
37955;SDS011;23776;51.592;7.180;2023-06-10T02:55:10;15.65;;;9.88;;
37955;SDS011;23776;51.592;7.180;2023-06-10T02:57:36;12.35;;;8.93;;
37955;SDS011;23776;51.592;7.180;2023-06-10T03:00:02;17.67;;;9.90;;
37955;SDS011;23776;51.592;7.180;2023-06-10T03:02:34;12.60;;;8.63;;
37955;SDS011;23776;51.592;7.180;2023-06-10T03:05:02;15.95;;;9.10;;
37955;SDS011;23776;51.592;7.180;2023-06-10T03:07:28;15.77;;;10.07;;
37955;SDS011;23776;51.592;7.180;2023-06-10T03:09:55;13.90;;;9.18;;
37955;SDS011;23776;51.592;7.180;2023-06-10T03:12:21;15.38;;;9.02;;
37955;SDS011;23776;51.592;7.180;2023-06-10T03:14:47;13.65;;;9.38;;
37955;SDS011;23776;51.592;7.180;2023-06-10T03:17:13;16.52;;;9.77;;
37955;SDS011;23776;51.592;7.180;2023-06-10T03:19:39;14.82;;;8.80;;
37955;SDS011;23776;51.592;7.180;2023-06-10T03:22:09;14.68;;;9.80;;
37955;SDS011;23776;51.592;7.180;2023-06-10T03:24:36;17.02;;;9.07;;
37955;SDS011;23776;51.592;7.180;2023-06-10T03:27:05;14.98;;;9.27;;
37955;SDS011;23776;51.592;7.180;2023-06-10T03:29:37;13.77;;;8.75;;
37955;SDS011;23776;51.592;7.180;2023-06-10T03:32:03;17.60;;;9.32;;
37955;SDS011;23776;51.592;7.180;2023-06-10T03:34:29;15.10;;;8.50;;
37955;SDS011;23776;51.592;7.180;2023-06-10T03:36:55;16.33;;;9.40;;
37955;SDS011;23776;51.592;7.180;2023-06-10T03:39:21;14.45;;;8.30;;
37955;SDS011;23776;51.592;7.180;2023-06-10T03:41:48;12.65;;;8.38;;
37955;SDS011;23776;51.592;7.180;2023-06-10T03:44:14;14.27;;;8.55;;
37955;SDS011;23776;51.592;7.180;2023-06-10T03:46:40;13.68;;;9.18;;
37955;SDS011;23776;51.592;7.180;2023-06-10T03:49:06;15.18;;;7.82;;
37955;SDS011;23776;51.592;7.180;2023-06-10T03:51:32;13.10;;;7.80;;
37955;SDS011;23776;51.592;7.180;2023-06-10T03:53:58;17.15;;;8.13;;
37955;SDS011;23776;51.592;7.180;2023-06-10T03:56:24;15.15;;;8.70;;
37955;SDS011;23776;51.592;7.180;2023-06-10T03:58:50;15.82;;;8.52;;
37955;SDS011;23776;51.592;7.180;2023-06-10T04:01:16;14.80;;;7.60;;
37955;SDS011;23776;51.592;7.180;2023-06-10T04:03:46;13.85;;;8.05;;
37955;SDS011;23776;51.592;7.180;2023-06-10T04:06:14;12.52;;;7.30;;
37955;SDS011;23776;51.592;7.180;2023-06-10T04:08:41;15.07;;;7.93;;
37955;SDS011;23776;51.592;7.180;2023-06-10T04:11:07;10.80;;;7.22;;
37955;SDS011;23776;51.592;7.180;2023-06-10T04:13:33;14.63;;;7.40;;
37955;SDS011;23776;51.592;7.180;2023-06-10T04:15:59;15.05;;;7.72;;
37955;SDS011;23776;51.592;7.180;2023-06-10T04:18:25;12.85;;;7.70;;
37955;SDS011;23776;51.592;7.180;2023-06-10T04:20:51;14.73;;;7.22;;
37955;SDS011;23776;51.592;7.180;2023-06-10T04:23:17;12.30;;;7.47;;
37955;SDS011;23776;51.592;7.180;2023-06-10T04:25:43;13.13;;;7.82;;
37955;SDS011;23776;51.592;7.180;2023-06-10T04:28:09;18.70;;;8.30;;
37955;SDS011;23776;51.592;7.180;2023-06-10T04:30:34;14.13;;;7.60;;
37955;SDS011;23776;51.592;7.180;2023-06-10T04:33:00;13.70;;;7.95;;
37955;SDS011;23776;51.592;7.180;2023-06-10T04:35:26;19.20;;;8.18;;
37955;SDS011;23776;51.592;7.180;2023-06-10T04:37:53;15.30;;;6.93;;
37955;SDS011;23776;51.592;7.180;2023-06-10T04:40:19;14.32;;;7.85;;
37955;SDS011;23776;51.592;7.180;2023-06-10T04:42:45;12.30;;;8.75;;
37955;SDS011;23776;51.592;7.180;2023-06-10T04:45:11;14.68;;;7.53;;
37955;SDS011;23776;51.592;7.180;2023-06-10T04:47:37;14.55;;;7.22;;
37955;SDS011;23776;51.592;7.180;2023-06-10T04:50:03;11.20;;;7.43;;
37955;SDS011;23776;51.592;7.180;2023-06-10T04:52:29;15.48;;;7.70;;
37955;SDS011;23776;51.592;7.180;2023-06-10T04:54:56;11.80;;;7.90;;
37955;SDS011;23776;51.592;7.180;2023-06-10T04:57:23;15.70;;;7.70;;
37955;SDS011;23776;51.592;7.180;2023-06-10T04:59:49;18.60;;;9.27;;
37955;SDS011;23776;51.592;7.180;2023-06-10T05:02:15;14.77;;;7.97;;
37955;SDS011;23776;51.592;7.180;2023-06-10T05:04:41;12.52;;;7.75;;
37955;SDS011;23776;51.592;7.180;2023-06-10T05:07:07;16.02;;;7.63;;
37955;SDS011;23776;51.592;7.180;2023-06-10T05:09:33;12.60;;;7.75;;
37955;SDS011;23776;51.592;7.180;2023-06-10T05:11:59;15.60;;;8.25;;
37955;SDS011;23776;51.592;7.180;2023-06-10T05:14:25;16.95;;;7.25;;
37955;SDS011;23776;51.592;7.180;2023-06-10T05:16:52;15.02;;;7.10;;
37955;SDS011;23776;51.592;7.180;2023-06-10T05:19:19;13.07;;;7.40;;
37955;SDS011;23776;51.592;7.180;2023-06-10T05:21:45;15.63;;;7.78;;
37955;SDS011;23776;51.592;7.180;2023-06-10T05:24:11;13.45;;;7.10;;
37955;SDS011;23776;51.592;7.180;2023-06-10T05:26:37;13.90;;;6.57;;
37955;SDS011;23776;51.592;7.180;2023-06-10T05:29:06;13.57;;;6.80;;
37955;SDS011;23776;51.592;7.180;2023-06-10T05:31:34;11.93;;;6.85;;
37955;SDS011;23776;51.592;7.180;2023-06-10T05:34:00;12.95;;;6.85;;
37955;SDS011;23776;51.592;7.180;2023-06-10T05:36:25;10.90;;;6.53;;
37955;SDS011;23776;51.592;7.180;2023-06-10T05:38:52;15.57;;;6.65;;
37955;SDS011;23776;51.592;7.180;2023-06-10T05:41:18;12.38;;;7.40;;
37955;SDS011;23776;51.592;7.180;2023-06-10T05:43:45;19.73;;;7.20;;
37955;SDS011;23776;51.592;7.180;2023-06-10T05:46:11;14.85;;;6.72;;
37955;SDS011;23776;51.592;7.180;2023-06-10T05:48:37;13.65;;;6.53;;
37955;SDS011;23776;51.592;7.180;2023-06-10T05:51:03;14.85;;;6.63;;
37955;SDS011;23776;51.592;7.180;2023-06-10T05:53:29;13.57;;;6.97;;
37955;SDS011;23776;51.592;7.180;2023-06-10T05:55:55;9.10;;;6.30;;
37955;SDS011;23776;51.592;7.180;2023-06-10T05:58:22;14.23;;;6.43;;
37955;SDS011;23776;51.592;7.180;2023-06-10T06:00:48;13.07;;;6.72;;
37955;SDS011;23776;51.592;7.180;2023-06-10T06:03:14;11.38;;;6.65;;
37955;SDS011;23776;51.592;7.180;2023-06-10T06:05:40;13.15;;;7.03;;
37955;SDS011;23776;51.592;7.180;2023-06-10T06:08:06;15.27;;;6.55;;
37955;SDS011;23776;51.592;7.180;2023-06-10T06:10:32;10.20;;;6.10;;
37955;SDS011;23776;51.592;7.180;2023-06-10T06:12:58;14.32;;;6.10;;
37955;SDS011;23776;51.592;7.180;2023-06-10T06:15:24;9.32;;;5.30;;
37955;SDS011;23776;51.592;7.180;2023-06-10T06:17:50;11.93;;;5.88;;
37955;SDS011;23776;51.592;7.180;2023-06-10T06:20:22;13.60;;;6.35;;
37955;SDS011;23776;51.592;7.180;2023-06-10T06:22:48;11.32;;;5.93;;
37955;SDS011;23776;51.592;7.180;2023-06-10T06:25:14;15.23;;;6.35;;
37955;SDS011;23776;51.592;7.180;2023-06-10T06:27:39;12.50;;;6.15;;
37955;SDS011;23776;51.592;7.180;2023-06-10T06:30:06;8.95;;;5.65;;
37955;SDS011;23776;51.592;7.180;2023-06-10T06:32:32;10.85;;;5.45;;
37955;SDS011;23776;51.592;7.180;2023-06-10T06:34:58;9.88;;;5.43;;
37955;SDS011;23776;51.592;7.180;2023-06-10T06:37:24;10.82;;;6.03;;
37955;SDS011;23776;51.592;7.180;2023-06-10T06:39:50;14.60;;;5.93;;
37955;SDS011;23776;51.592;7.180;2023-06-10T06:42:17;14.73;;;6.05;;
37955;SDS011;23776;51.592;7.180;2023-06-10T06:44:43;11.50;;;5.43;;
37955;SDS011;23776;51.592;7.180;2023-06-10T06:47:09;10.63;;;5.55;;
37955;SDS011;23776;51.592;7.180;2023-06-10T06:49:34;8.90;;;5.43;;
37955;SDS011;23776;51.592;7.180;2023-06-10T06:52:00;12.07;;;5.60;;
37955;SDS011;23776;51.592;7.180;2023-06-10T06:54:26;9.48;;;4.97;;
37955;SDS011;23776;51.592;7.180;2023-06-10T06:56:52;9.55;;;5.43;;
37955;SDS011;23776;51.592;7.180;2023-06-10T06:59:17;12.45;;;6.13;;
37955;SDS011;23776;51.592;7.180;2023-06-10T07:01:44;8.30;;;5.30;;
37955;SDS011;23776;51.592;7.180;2023-06-10T07:04:11;6.90;;;5.15;;
37955;SDS011;23776;51.592;7.180;2023-06-10T07:06:36;12.15;;;4.93;;
37955;SDS011;23776;51.592;7.180;2023-06-10T07:09:03;11.85;;;4.90;;
37955;SDS011;23776;51.592;7.180;2023-06-10T07:11:29;12.75;;;5.13;;
37955;SDS011;23776;51.592;7.180;2023-06-10T07:13:55;11.90;;;5.82;;
37955;SDS011;23776;51.592;7.180;2023-06-10T07:16:21;12.65;;;5.60;;
37955;SDS011;23776;51.592;7.180;2023-06-10T07:18:47;7.40;;;4.57;;
37955;SDS011;23776;51.592;7.180;2023-06-10T07:21:13;13.35;;;5.63;;
37955;SDS011;23776;51.592;7.180;2023-06-10T07:23:41;9.00;;;5.25;;
37955;SDS011;23776;51.592;7.180;2023-06-10T07:26:08;11.63;;;4.40;;
37955;SDS011;23776;51.592;7.180;2023-06-10T07:28:36;10.40;;;5.53;;
37955;SDS011;23776;51.592;7.180;2023-06-10T07:31:10;10.18;;;5.25;;
37955;SDS011;23776;51.592;7.180;2023-06-10T07:33:37;14.90;;;4.93;;
37955;SDS011;23776;51.592;7.180;2023-06-10T07:36:04;11.15;;;5.50;;
37955;SDS011;23776;51.592;7.180;2023-06-10T07:38:30;10.35;;;5.10;;
37955;SDS011;23776;51.592;7.180;2023-06-10T07:40:56;10.30;;;4.65;;
37955;SDS011;23776;51.592;7.180;2023-06-10T07:43:22;9.55;;;5.10;;
37955;SDS011;23776;51.592;7.180;2023-06-10T07:45:48;6.00;;;4.15;;
37955;SDS011;23776;51.592;7.180;2023-06-10T07:48:14;9.25;;;4.90;;
37955;SDS011;23776;51.592;7.180;2023-06-10T07:50:40;9.20;;;5.10;;
37955;SDS011;23776;51.592;7.180;2023-06-10T07:53:05;7.32;;;5.10;;
37955;SDS011;23776;51.592;7.180;2023-06-10T07:55:31;10.95;;;4.82;;
37955;SDS011;23776;51.592;7.180;2023-06-10T07:57:57;10.20;;;5.32;;
37955;SDS011;23776;51.592;7.180;2023-06-10T08:00:23;9.35;;;5.22;;
37955;SDS011;23776;51.592;7.180;2023-06-10T08:02:49;12.07;;;5.47;;
37955;SDS011;23776;51.592;7.180;2023-06-10T08:05:15;9.70;;;4.97;;
37955;SDS011;23776;51.592;7.180;2023-06-10T08:07:41;8.25;;;4.75;;
37955;SDS011;23776;51.592;7.180;2023-06-10T08:10:07;9.20;;;4.45;;
37955;SDS011;23776;51.592;7.180;2023-06-10T08:12:33;9.40;;;4.78;;
37955;SDS011;23776;51.592;7.180;2023-06-10T08:14:59;13.07;;;4.60;;
37955;SDS011;23776;51.592;7.180;2023-06-10T08:17:25;9.18;;;5.40;;
37955;SDS011;23776;51.592;7.180;2023-06-10T08:19:51;8.40;;;5.18;;
37955;SDS011;23776;51.592;7.180;2023-06-10T08:22:16;11.38;;;4.45;;
37955;SDS011;23776;51.592;7.180;2023-06-10T08:24:42;14.13;;;5.07;;
37955;SDS011;23776;51.592;7.180;2023-06-10T08:27:08;8.32;;;4.72;;
37955;SDS011;23776;51.592;7.180;2023-06-10T08:29:34;8.45;;;4.65;;
37955;SDS011;23776;51.592;7.180;2023-06-10T08:32:00;9.23;;;5.03;;
37955;SDS011;23776;51.592;7.180;2023-06-10T08:34:25;9.65;;;5.43;;
37955;SDS011;23776;51.592;7.180;2023-06-10T08:36:51;6.95;;;4.57;;
37955;SDS011;23776;51.592;7.180;2023-06-10T08:39:20;7.40;;;4.47;;
37955;SDS011;23776;51.592;7.180;2023-06-10T08:42:10;11.80;;;5.30;;
37955;SDS011;23776;51.592;7.180;2023-06-10T08:44:35;11.48;;;5.70;;
37955;SDS011;23776;51.592;7.180;2023-06-10T08:47:12;9.05;;;4.80;;
37955;SDS011;23776;51.592;7.180;2023-06-10T08:49:46;6.85;;;4.35;;
37955;SDS011;23776;51.592;7.180;2023-06-10T08:52:16;14.43;;;6.05;;
37955;SDS011;23776;51.592;7.180;2023-06-10T08:54:43;10.32;;;5.38;;
37955;SDS011;23776;51.592;7.180;2023-06-10T08:57:17;10.45;;;4.82;;
37955;SDS011;23776;51.592;7.180;2023-06-10T08:59:45;12.25;;;4.55;;
37955;SDS011;23776;51.592;7.180;2023-06-10T09:02:11;7.32;;;4.80;;
37955;SDS011;23776;51.592;7.180;2023-06-10T09:04:40;6.80;;;4.55;;
37955;SDS011;23776;51.592;7.180;2023-06-10T09:07:08;11.75;;;4.55;;
37955;SDS011;23776;51.592;7.180;2023-06-10T09:09:34;11.27;;;4.75;;
37955;SDS011;23776;51.592;7.180;2023-06-10T09:12:00;8.93;;;4.65;;
37955;SDS011;23776;51.592;7.180;2023-06-10T09:14:26;9.55;;;5.15;;
37955;SDS011;23776;51.592;7.180;2023-06-10T09:16:52;8.85;;;5.07;;
37955;SDS011;23776;51.592;7.180;2023-06-10T09:19:21;9.43;;;4.70;;
37955;SDS011;23776;51.592;7.180;2023-06-10T09:21:48;9.32;;;5.20;;
37955;SDS011;23776;51.592;7.180;2023-06-10T09:24:13;8.05;;;5.35;;
37955;SDS011;23776;51.592;7.180;2023-06-10T09:26:39;7.13;;;4.78;;
37955;SDS011;23776;51.592;7.180;2023-06-10T09:29:05;10.25;;;5.10;;
37955;SDS011;23776;51.592;7.180;2023-06-10T09:31:34;9.23;;;5.65;;
37955;SDS011;23776;51.592;7.180;2023-06-10T09:34:25;10.05;;;5.28;;
37955;SDS011;23776;51.592;7.180;2023-06-10T09:36:50;10.52;;;5.82;;
37955;SDS011;23776;51.592;7.180;2023-06-10T09:39:16;7.90;;;4.90;;
37955;SDS011;23776;51.592;7.180;2023-06-10T09:41:43;10.98;;;5.38;;
37955;SDS011;23776;51.592;7.180;2023-06-10T09:44:17;10.63;;;5.05;;
37955;SDS011;23776;51.592;7.180;2023-06-10T09:46:45;8.52;;;4.97;;
37955;SDS011;23776;51.592;7.180;2023-06-10T09:49:13;9.73;;;5.72;;
37955;SDS011;23776;51.592;7.180;2023-06-10T09:51:52;11.02;;;5.28;;
37955;SDS011;23776;51.592;7.180;2023-06-10T09:54:20;6.85;;;4.85;;
37955;SDS011;23776;51.592;7.180;2023-06-10T09:56:47;9.45;;;4.90;;
37955;SDS011;23776;51.592;7.180;2023-06-10T09:59:14;11.55;;;5.15;;
37955;SDS011;23776;51.592;7.180;2023-06-10T10:01:41;8.75;;;5.18;;
37955;SDS011;23776;51.592;7.180;2023-06-10T10:04:06;10.93;;;5.50;;
37955;SDS011;23776;51.592;7.180;2023-06-10T10:06:32;8.23;;;5.32;;
37955;SDS011;23776;51.592;7.180;2023-06-10T10:09:00;7.57;;;5.05;;
37955;SDS011;23776;51.592;7.180;2023-06-10T10:11:28;7.55;;;5.22;;
37955;SDS011;23776;51.592;7.180;2023-06-10T10:13:56;7.35;;;5.10;;
37955;SDS011;23776;51.592;7.180;2023-06-10T10:16:43;8.05;;;4.57;;
37955;SDS011;23776;51.592;7.180;2023-06-10T10:19:20;8.77;;;5.05;;
37955;SDS011;23776;51.592;7.180;2023-06-10T10:21:54;10.32;;;5.53;;
37955;SDS011;23776;51.592;7.180;2023-06-10T10:24:30;10.43;;;5.30;;
37955;SDS011;23776;51.592;7.180;2023-06-10T10:27:27;6.30;;;4.25;;
37955;SDS011;23776;51.592;7.180;2023-06-10T10:29:55;8.73;;;5.25;;
37955;SDS011;23776;51.592;7.180;2023-06-10T10:32:29;10.85;;;5.35;;
37955;SDS011;23776;51.592;7.180;2023-06-10T10:35:03;9.40;;;4.53;;
37955;SDS011;23776;51.592;7.180;2023-06-10T10:37:43;8.82;;;5.00;;
37955;SDS011;23776;51.592;7.180;2023-06-10T10:40:09;8.77;;;5.05;;
37955;SDS011;23776;51.592;7.180;2023-06-10T10:42:36;7.32;;;4.65;;
37955;SDS011;23776;51.592;7.180;2023-06-10T10:45:03;8.65;;;4.82;;
37955;SDS011;23776;51.592;7.180;2023-06-10T10:47:30;10.05;;;4.93;;
37955;SDS011;23776;51.592;7.180;2023-06-10T10:49:56;8.70;;;5.40;;
37955;SDS011;23776;51.592;7.180;2023-06-10T10:52:24;9.07;;;4.53;;
37955;SDS011;23776;51.592;7.180;2023-06-10T10:54:52;7.75;;;4.82;;
37955;SDS011;23776;51.592;7.180;2023-06-10T10:57:19;12.90;;;4.72;;
37955;SDS011;23776;51.592;7.180;2023-06-10T11:02:32;8.60;;;5.05;;
37955;SDS011;23776;51.592;7.180;2023-06-10T11:05:08;8.93;;;5.40;;
37955;SDS011;23776;51.592;7.180;2023-06-10T11:07:51;8.95;;;5.40;;
37955;SDS011;23776;51.592;7.180;2023-06-10T11:10:20;8.32;;;4.97;;
37955;SDS011;23776;51.592;7.180;2023-06-10T11:12:56;7.45;;;5.22;;
37955;SDS011;23776;51.592;7.180;2023-06-10T11:15:24;7.57;;;5.22;;
37955;SDS011;23776;51.592;7.180;2023-06-10T11:18:06;8.30;;;5.00;;
37955;SDS011;23776;51.592;7.180;2023-06-10T11:31:19;7.00;;;4.60;;
37955;SDS011;23776;51.592;7.180;2023-06-10T11:33:51;8.98;;;4.97;;
37955;SDS011;23776;51.592;7.180;2023-06-10T11:36:18;8.90;;;5.85;;
37955;SDS011;23776;51.592;7.180;2023-06-10T11:38:45;9.93;;;6.03;;
37955;SDS011;23776;51.592;7.180;2023-06-10T11:41:14;10.25;;;5.53;;
37955;SDS011;23776;51.592;7.180;2023-06-10T11:43:46;10.15;;;5.30;;
37955;SDS011;23776;51.592;7.180;2023-06-10T11:46:12;10.50;;;5.65;;
37955;SDS011;23776;51.592;7.180;2023-06-10T11:48:39;8.60;;;4.95;;
37955;SDS011;23776;51.592;7.180;2023-06-10T11:51:08;7.82;;;5.72;;
37955;SDS011;23776;51.592;7.180;2023-06-10T11:53:34;9.75;;;4.78;;
37955;SDS011;23776;51.592;7.180;2023-06-10T11:56:00;11.32;;;5.88;;
37955;SDS011;23776;51.592;7.180;2023-06-10T11:58:26;9.40;;;5.78;;
37955;SDS011;23776;51.592;7.180;2023-06-10T12:00:52;9.32;;;5.63;;
37955;SDS011;23776;51.592;7.180;2023-06-10T12:03:20;11.52;;;5.97;;
37955;SDS011;23776;51.592;7.180;2023-06-10T12:08:22;5.80;;;5.15;;
37955;SDS011;23776;51.592;7.180;2023-06-10T12:10:48;8.70;;;5.05;;
37955;SDS011;23776;51.592;7.180;2023-06-10T12:13:14;7.07;;;5.53;;
37955;SDS011;23776;51.592;7.180;2023-06-10T12:15:40;9.82;;;5.70;;
37955;SDS011;23776;51.592;7.180;2023-06-10T12:18:05;12.73;;;5.63;;
37955;SDS011;23776;51.592;7.180;2023-06-10T12:20:32;8.65;;;6.30;;
37955;SDS011;23776;51.592;7.180;2023-06-10T12:23:08;13.00;;;6.10;;
37955;SDS011;23776;51.592;7.180;2023-06-10T12:25:34;9.52;;;5.18;;
37955;SDS011;23776;51.592;7.180;2023-06-10T12:28:02;7.43;;;5.38;;
37955;SDS011;23776;51.592;7.180;2023-06-10T12:30:28;12.82;;;5.97;;
37955;SDS011;23776;51.592;7.180;2023-06-10T12:32:54;8.10;;;5.63;;
37955;SDS011;23776;51.592;7.180;2023-06-10T12:35:21;8.02;;;5.70;;
37955;SDS011;23776;51.592;7.180;2023-06-10T12:37:56;8.23;;;5.80;;
37955;SDS011;23776;51.592;7.180;2023-06-10T12:42:53;7.05;;;5.53;;
37955;SDS011;23776;51.592;7.180;2023-06-10T12:45:29;8.40;;;5.05;;
37955;SDS011;23776;51.592;7.180;2023-06-10T12:48:12;6.68;;;5.25;;
37955;SDS011;23776;51.592;7.180;2023-06-10T12:50:44;7.97;;;5.65;;
37955;SDS011;23776;51.592;7.180;2023-06-10T12:53:12;9.73;;;5.40;;
37955;SDS011;23776;51.592;7.180;2023-06-10T12:55:37;8.60;;;5.72;;
37955;SDS011;23776;51.592;7.180;2023-06-10T12:58:03;6.95;;;5.07;;
37955;SDS011;23776;51.592;7.180;2023-06-10T13:00:29;8.38;;;5.22;;
37955;SDS011;23776;51.592;7.180;2023-06-10T13:02:59;7.38;;;5.53;;
37955;SDS011;23776;51.592;7.180;2023-06-10T13:05:26;8.60;;;4.65;;
37955;SDS011;23776;51.592;7.180;2023-06-10T13:07:51;6.43;;;4.88;;
37955;SDS011;23776;51.592;7.180;2023-06-10T13:10:17;6.57;;;4.47;;
37955;SDS011;23776;51.592;7.180;2023-06-10T13:12:44;7.95;;;4.45;;
37955;SDS011;23776;51.592;7.180;2023-06-10T13:15:10;6.20;;;5.28;;
37955;SDS011;23776;51.592;7.180;2023-06-10T13:17:36;8.80;;;5.25;;
37955;SDS011;23776;51.592;7.180;2023-06-10T13:20:03;11.85;;;5.13;;
37955;SDS011;23776;51.592;7.180;2023-06-10T13:22:30;12.05;;;4.93;;
37955;SDS011;23776;51.592;7.180;2023-06-10T13:24:57;8.13;;;4.82;;
37955;SDS011;23776;51.592;7.180;2023-06-10T13:27:28;10.65;;;5.68;;
37955;SDS011;23776;51.592;7.180;2023-06-10T13:29:53;12.10;;;4.97;;
37955;SDS011;23776;51.592;7.180;2023-06-10T13:32:19;5.82;;;4.32;;
37955;SDS011;23776;51.592;7.180;2023-06-10T13:34:44;7.03;;;5.00;;
37955;SDS011;23776;51.592;7.180;2023-06-10T13:37:10;7.55;;;4.55;;
37955;SDS011;23776;51.592;7.180;2023-06-10T13:39:37;6.53;;;5.10;;
37955;SDS011;23776;51.592;7.180;2023-06-10T13:42:03;8.75;;;5.70;;
37955;SDS011;23776;51.592;7.180;2023-06-10T13:44:29;7.95;;;4.65;;
37955;SDS011;23776;51.592;7.180;2023-06-10T13:46:58;7.75;;;4.85;;
37955;SDS011;23776;51.592;7.180;2023-06-10T13:49:24;7.65;;;5.07;;
37955;SDS011;23776;51.592;7.180;2023-06-10T13:51:50;7.30;;;4.78;;
37955;SDS011;23776;51.592;7.180;2023-06-10T13:54:15;10.20;;;5.10;;
37955;SDS011;23776;51.592;7.180;2023-06-10T13:56:41;7.03;;;5.18;;
37955;SDS011;23776;51.592;7.180;2023-06-10T13:59:07;6.10;;;4.95;;
37955;SDS011;23776;51.592;7.180;2023-06-10T14:01:33;11.07;;;4.72;;
37955;SDS011;23776;51.592;7.180;2023-06-10T14:03:59;8.30;;;4.60;;
37955;SDS011;23776;51.592;7.180;2023-06-10T14:06:25;11.75;;;4.97;;
37955;SDS011;23776;51.592;7.180;2023-06-10T14:08:51;5.57;;;4.55;;
37955;SDS011;23776;51.592;7.180;2023-06-10T14:11:19;6.53;;;4.40;;
37955;SDS011;23776;51.592;7.180;2023-06-10T14:13:45;7.05;;;4.78;;
37955;SDS011;23776;51.592;7.180;2023-06-10T14:16:11;6.25;;;5.03;;
37955;SDS011;23776;51.592;7.180;2023-06-10T14:18:37;9.45;;;5.45;;
37955;SDS011;23776;51.592;7.180;2023-06-10T14:21:03;6.28;;;5.50;;
37955;SDS011;23776;51.592;7.180;2023-06-10T14:23:28;7.75;;;4.93;;
37955;SDS011;23776;51.592;7.180;2023-06-10T14:25:54;6.82;;;5.13;;
37955;SDS011;23776;51.592;7.180;2023-06-10T14:28:20;11.35;;;5.28;;
37955;SDS011;23776;51.592;7.180;2023-06-10T14:30:45;7.75;;;5.05;;
37955;SDS011;23776;51.592;7.180;2023-06-10T14:33:11;7.28;;;5.28;;
37955;SDS011;23776;51.592;7.180;2023-06-10T14:35:36;6.15;;;4.60;;
37955;SDS011;23776;51.592;7.180;2023-06-10T14:38:02;10.00;;;5.43;;
37955;SDS011;23776;51.592;7.180;2023-06-10T14:40:28;7.97;;;5.00;;
37955;SDS011;23776;51.592;7.180;2023-06-10T14:42:54;7.20;;;5.32;;
37955;SDS011;23776;51.592;7.180;2023-06-10T14:45:20;7.00;;;4.82;;
37955;SDS011;23776;51.592;7.180;2023-06-10T14:47:46;6.45;;;4.60;;
37955;SDS011;23776;51.592;7.180;2023-06-10T14:50:12;8.32;;;4.75;;
37955;SDS011;23776;51.592;7.180;2023-06-10T14:52:38;5.07;;;4.57;;
37955;SDS011;23776;51.592;7.180;2023-06-10T14:55:03;6.20;;;4.13;;
37955;SDS011;23776;51.592;7.180;2023-06-10T14:57:29;6.13;;;4.65;;
37955;SDS011;23776;51.592;7.180;2023-06-10T14:59:55;9.73;;;5.60;;
37955;SDS011;23776;51.592;7.180;2023-06-10T15:02:21;6.22;;;4.88;;
37955;SDS011;23776;51.592;7.180;2023-06-10T15:04:47;7.03;;;4.80;;